createdAt,value
2022-08-21T00:00:29.837Z,83.68
2022-08-21T00:03:07.044Z,84.29
2022-08-21T00:05:40.326Z,83.90
2022-08-21T00:08:08.907Z,84.09
2022-08-21T00:10:36.878Z,84.14
2022-08-21T00:13:06.020Z,84.01
2022-08-21T00:15:36.535Z,84.84
2022-08-21T00:18:06.552Z,83.62
2022-08-21T00:20:35.791Z,83.80
2022-08-21T00:23:03.866Z,83.78
2022-08-21T00:25:32.154Z,83.63
2022-08-21T00:27:59.674Z,83.13
2022-08-21T00:30:28.349Z,83.61
2022-08-21T00:32:58.803Z,83.17
2022-08-21T00:35:34.228Z,83.26
2022-08-21T00:38:01.679Z,83.61
2022-08-21T00:40:38.334Z,83.85
2022-08-21T00:43:08.958Z,83.71
2022-08-21T00:45:37.006Z,83.71
2022-08-21T00:48:05.312Z,83.55
2022-08-21T00:50:40.552Z,83.16
2022-08-21T00:53:09.333Z,83.25
2022-08-21T00:55:38.438Z,84.27
2022-08-21T00:58:10.159Z,83.23
2022-08-21T01:00:41.985Z,83.24
2022-08-21T01:03:17.551Z,83.26
2022-08-21T01:05:45.604Z,83.21
2022-08-21T01:08:14.409Z,83.25
2022-08-21T01:10:42.389Z,83.73
2022-08-21T01:13:11.989Z,83.63
2022-08-21T01:15:45.040Z,83.56
2022-08-21T01:18:14.359Z,83.36
2022-08-21T01:20:56.967Z,83.04
2022-08-21T01:23:24.753Z,82.46
2022-08-21T01:25:52.181Z,82.87
2022-08-21T01:28:19.748Z,82.71
2022-08-21T01:30:47.134Z,82.95
2022-08-21T01:33:14.568Z,82.96
2022-08-21T01:35:41.981Z,83.21
2022-08-21T01:38:09.886Z,83.23
2022-08-21T01:40:37.241Z,83.54
2022-08-21T01:43:04.819Z,83.65
2022-08-21T01:45:32.599Z,83.48
2022-08-21T01:47:59.885Z,83.80
2022-08-21T01:50:27.387Z,83.85
2022-08-21T01:52:54.811Z,84.15
2022-08-21T01:55:24.124Z,84.16
2022-08-21T01:57:51.537Z,83.01
2022-08-21T02:00:25.990Z,83.74
2022-08-21T02:02:54.162Z,84.27
2022-08-21T02:05:21.635Z,83.77
2022-08-21T02:07:52.868Z,83.94
2022-08-21T02:10:27.530Z,83.75
2022-08-21T02:12:56.857Z,84.05
2022-08-21T02:15:24.958Z,84.07
2022-08-21T02:17:59.706Z,84.63
2022-08-21T02:20:35.499Z,84.63
2022-08-21T02:23:03.144Z,84.93
2022-08-21T02:25:32.067Z,84.51
2022-08-21T02:28:02.952Z,84.23
2022-08-21T02:30:39.015Z,84.24
2022-08-21T02:33:10.485Z,84.08
2022-08-21T02:35:39.989Z,84.40
2022-08-21T02:38:13.314Z,84.57
2022-08-21T02:40:48.061Z,84.43
2022-08-21T02:43:16.838Z,84.32
2022-08-21T02:45:46.193Z,84.50
2022-08-21T02:48:18.460Z,84.38
2022-08-21T02:51:03.926Z,84.89
2022-08-21T02:53:31.939Z,84.73
2022-08-21T02:56:02.216Z,84.83
2022-08-21T02:58:34.301Z,84.57
2022-08-21T03:01:01.723Z,84.75
2022-08-21T03:03:30.473Z,84.70
2022-08-21T03:05:58.140Z,84.21
2022-08-21T03:08:27.750Z,84.53
2022-08-21T03:10:56.012Z,84.34
2022-08-21T03:13:23.522Z,84.75
2022-08-21T03:15:51.772Z,84.77
2022-08-21T03:18:19.803Z,84.82
2022-08-21T03:20:48.290Z,84.58
2022-08-21T03:23:19.031Z,83.71
2022-08-21T03:25:49.422Z,84.13
2022-08-21T03:28:22.646Z,84.46
2022-08-21T03:30:52.899Z,84.67
2022-08-21T03:33:23.139Z,84.71
2022-08-21T03:36:01.680Z,84.90
2022-08-21T03:38:32.297Z,85.53
2022-08-21T03:41:01.078Z,85.20
2022-08-21T03:43:31.216Z,84.91
2022-08-21T03:46:03.142Z,85.37
2022-08-21T03:48:30.821Z,85.63
2022-08-21T03:50:58.178Z,85.30
2022-08-21T03:53:26.255Z,85.15
2022-08-21T03:55:54.271Z,85.06
2022-08-21T03:58:26.504Z,85.05
2022-08-21T04:00:57.570Z,85.14
2022-08-21T04:03:25.968Z,85.68
2022-08-21T04:05:53.380Z,85.37
2022-08-21T04:08:21.086Z,84.86
2022-08-21T04:10:52.459Z,85.00
2022-08-21T04:13:20.184Z,85.47
2022-08-21T04:15:51.077Z,85.25
2022-08-21T04:18:19.010Z,85.28
2022-08-21T04:20:50.728Z,84.84
2022-08-21T04:23:23.724Z,84.93
2022-08-21T04:25:53.382Z,85.09
2022-08-21T04:28:22.454Z,84.62
2022-08-21T04:30:53.140Z,84.73
2022-08-21T04:33:21.931Z,84.32
2022-08-21T04:35:51.348Z,84.07
2022-08-21T04:38:19.777Z,84.25
2022-08-21T04:40:47.461Z,84.08
2022-08-21T04:43:14.850Z,83.64
2022-08-21T04:45:46.477Z,83.35
2022-08-21T04:48:17.104Z,82.43
2022-08-21T04:51:11.586Z,82.15
2022-08-21T04:54:03.818Z,81.95
2022-08-21T04:56:46.584Z,81.48
2022-08-21T04:59:29.762Z,81.40
2022-08-21T05:01:57.751Z,81.44
2022-08-21T05:04:32.069Z,81.02
2022-08-21T05:09:31.219Z,80.73
2022-08-21T05:11:59.469Z,81.03
2022-08-21T05:14:28.315Z,80.27
2022-08-21T05:16:55.609Z,80.75
2022-08-21T05:19:23.179Z,79.61
2022-08-21T05:21:50.534Z,79.63
2022-08-21T05:24:18.873Z,79.62
2022-08-21T05:26:47.098Z,79.76
2022-08-21T05:29:18.249Z,79.25
2022-08-21T05:31:47.640Z,78.91
2022-08-21T05:36:44.769Z,79.57
2022-08-21T05:39:12.720Z,78.89
2022-08-21T05:41:40.374Z,78.65
2022-08-21T05:44:10.123Z,79.08
2022-08-21T05:46:37.770Z,79.10
2022-08-21T05:49:05.107Z,78.95
2022-08-21T05:51:32.758Z,79.14
2022-08-21T05:54:00.086Z,78.95
2022-08-21T05:56:27.415Z,78.43
2022-08-21T05:58:54.727Z,79.04
2022-08-21T06:01:22.081Z,79.36
2022-08-21T06:03:49.444Z,81.29
2022-08-21T06:06:16.819Z,78.83
2022-08-21T06:08:44.621Z,79.56
2022-08-21T06:11:12.035Z,81.01
2022-08-21T06:13:40.121Z,80.75
2022-08-21T06:16:15.876Z,81.04
2022-08-21T06:18:45.289Z,81.18
2022-08-21T06:21:14.699Z,81.39
2022-08-21T06:23:43.027Z,81.03
2022-08-21T06:26:14.046Z,80.06
2022-08-21T06:28:43.394Z,79.81
2022-08-21T06:31:19.806Z,80.07
2022-08-21T06:33:47.795Z,79.74
2022-08-21T06:36:15.672Z,80.97
2022-08-21T06:38:50.860Z,79.92
2022-08-21T06:41:24.359Z,80.62
2022-08-21T06:43:54.852Z,79.80
2022-08-21T06:46:22.868Z,78.96
2022-08-21T06:48:50.510Z,79.35
2022-08-21T06:51:17.812Z,79.66
2022-08-21T06:53:45.147Z,79.41
2022-08-21T06:56:12.581Z,78.44
2022-08-21T06:58:40.102Z,78.50
2022-08-21T07:01:08.772Z,78.41
2022-08-21T07:03:44.192Z,79.34
2022-08-21T07:06:13.223Z,79.43
2022-08-21T07:08:40.967Z,79.05
2022-08-21T07:11:21.442Z,78.14
2022-08-21T07:13:49.487Z,79.03
2022-08-21T07:16:16.788Z,77.84
2022-08-21T07:18:44.158Z,78.37
2022-08-21T07:21:11.541Z,78.32
2022-08-21T07:23:44.127Z,78.29
2022-08-21T07:26:12.517Z,77.95
2022-08-21T07:28:40.290Z,78.47
2022-08-21T07:31:09.495Z,78.31
2022-08-21T07:33:37.884Z,77.99
2022-08-21T07:36:05.619Z,77.91
2022-08-21T07:38:33.065Z,77.38
2022-08-21T07:41:02.813Z,78.00
2022-08-21T07:43:31.141Z,78.15
2022-08-21T07:45:58.468Z,78.16
2022-08-21T07:48:26.080Z,78.53
2022-08-21T07:50:53.418Z,78.74
2022-08-21T07:53:20.703Z,77.64
2022-08-21T07:55:47.931Z,77.82
2022-08-21T07:58:15.186Z,77.26
2022-08-21T08:00:43.112Z,78.51
2022-08-21T08:03:10.672Z,79.15
2022-08-21T08:05:38.688Z,78.88
2022-08-21T08:08:05.960Z,76.14
2022-08-21T08:10:33.547Z,77.34
2022-08-21T08:13:01.170Z,78.76
2022-08-21T08:15:29.401Z,78.89
2022-08-21T08:17:58.164Z,78.78
2022-08-21T08:20:30.207Z,78.85
2022-08-21T08:22:58.668Z,78.96
2022-08-21T08:25:32.829Z,79.43
2022-08-21T08:28:16.334Z,79.33
2022-08-21T08:30:47.029Z,78.82
2022-08-21T08:33:15.453Z,78.69
2022-08-21T08:35:48.614Z,78.34
2022-08-21T08:38:20.933Z,79.39
2022-08-21T08:41:10.001Z,79.35
2022-08-21T08:43:37.469Z,80.72
2022-08-21T08:46:12.290Z,80.83
2022-08-21T08:48:55.458Z,80.41
2022-08-21T08:51:53.130Z,81.45
2022-08-21T08:54:53.139Z,83.42
2022-08-21T08:57:24.599Z,84.05
2022-08-21T08:59:57.168Z,83.41
2022-08-21T09:02:24.985Z,82.33
2022-08-21T09:04:55.135Z,83.49
2022-08-21T09:07:40.926Z,84.93
2022-08-21T09:10:18.033Z,85.21
2022-08-21T09:13:22.654Z,84.32
2022-08-21T09:15:59.454Z,83.92
2022-08-21T09:19:05.566Z,83.80
2022-08-21T09:22:08.364Z,84.16
2022-08-21T09:25:08.936Z,85.20
2022-08-21T09:27:37.579Z,85.53
2022-08-21T09:30:08.390Z,84.85
2022-08-21T09:32:39.514Z,85.36
2022-08-21T09:35:09.558Z,86.19
2022-08-21T09:38:06.212Z,85.35
2022-08-21T09:40:43.868Z,86.23
2022-08-21T09:45:43.366Z,85.72
2022-08-21T09:48:27.047Z,86.90
2022-08-21T09:51:14.826Z,86.14
2022-08-21T09:53:53.018Z,85.49
2022-08-21T09:56:47.147Z,85.57
2022-08-21T09:59:26.930Z,84.83
2022-08-21T10:01:55.663Z,85.39
2022-08-21T10:04:49.987Z,84.77
2022-08-21T10:07:24.400Z,85.33
2022-08-21T10:10:08.721Z,84.92
2022-08-21T10:13:15.065Z,83.94
2022-08-21T10:16:06.847Z,83.51
2022-08-21T10:18:44.225Z,84.86
2022-08-21T10:21:32.776Z,85.91
2022-08-21T10:24:45.154Z,86.47
2022-08-21T10:27:51.081Z,84.90
2022-08-21T10:30:42.693Z,85.02
2022-08-21T10:33:17.483Z,84.05
2022-08-21T10:36:16.864Z,84.16
2022-08-21T10:39:23.358Z,84.36
2022-08-21T10:42:12.497Z,84.11
2022-08-21T10:44:51.610Z,83.42
2022-08-21T10:47:36.669Z,84.29
2022-08-21T10:50:41.715Z,84.45
2022-08-21T10:53:20.548Z,84.66
2022-08-21T10:56:17.237Z,84.55
2022-08-21T10:59:17.255Z,85.20
2022-08-21T11:02:12.973Z,85.49
2022-08-21T11:05:06.999Z,84.63
2022-08-21T11:07:45.219Z,85.23
2022-08-21T11:10:27.159Z,85.58
2022-08-21T11:13:08.179Z,85.46
2022-08-21T11:16:00.385Z,85.09
2022-08-21T11:18:46.099Z,85.58
2022-08-21T11:21:48.467Z,85.47
2022-08-21T11:24:34.674Z,85.10
2022-08-21T11:29:47.255Z,84.42
2022-08-21T11:33:01.399Z,84.71
2022-08-21T11:35:52.187Z,84.07
2022-08-21T11:41:54.866Z,85.28
2022-08-21T11:45:13.790Z,85.37
2022-08-21T11:48:08.238Z,86.20
2022-08-21T11:50:37.954Z,85.10
2022-08-21T11:53:20.867Z,84.47
2022-08-21T11:56:08.476Z,85.38
2022-08-21T11:58:46.892Z,85.28
2022-08-21T12:01:29.639Z,85.41
2022-08-21T12:04:09.043Z,85.93
2022-08-21T12:06:42.029Z,86.84
2022-08-21T12:09:24.506Z,87.47
2022-08-21T12:12:32.647Z,87.06
2022-08-21T12:15:29.895Z,86.48
2022-08-21T12:18:23.744Z,87.32
2022-08-21T12:21:25.159Z,87.93
2022-08-21T12:24:41.284Z,87.47
2022-08-21T12:27:26.781Z,88.20
2022-08-21T12:30:28.862Z,88.24
2022-08-21T12:33:07.257Z,88.46
2022-08-21T12:35:41.327Z,87.99
2022-08-21T12:38:18.686Z,87.16
2022-08-21T12:40:49.126Z,86.42
2022-08-21T12:43:44.927Z,84.83
2022-08-21T12:46:31.031Z,87.09
2022-08-21T12:49:07.437Z,86.25
2022-08-21T12:51:58.046Z,86.02
2022-08-21T12:54:32.861Z,84.52
2022-08-21T12:57:07.006Z,82.72
2022-08-21T12:59:39.352Z,82.86
2022-08-21T13:02:19.768Z,82.33
2022-08-21T13:04:49.559Z,82.36
2022-08-21T13:07:27.024Z,80.93
2022-08-21T13:10:04.283Z,80.58
2022-08-21T13:12:32.953Z,80.70
2022-08-21T13:15:05.762Z,79.33
2022-08-21T13:17:41.245Z,80.72
2022-08-21T13:20:25.456Z,80.41
2022-08-21T13:22:53.324Z,81.12
2022-08-21T13:25:28.580Z,80.90
2022-08-21T13:28:10.348Z,80.69
2022-08-21T13:30:45.784Z,79.19
2022-08-21T13:33:17.460Z,79.60
2022-08-21T13:35:56.987Z,79.32
2022-08-21T13:38:31.902Z,78.82
2022-08-21T13:41:29.749Z,79.42
2022-08-21T13:44:04.824Z,79.33
2022-08-21T13:46:37.585Z,79.50
2022-08-21T13:49:07.973Z,80.38
2022-08-21T13:51:36.782Z,79.44
2022-08-21T13:54:31.427Z,79.63
2022-08-21T13:56:58.677Z,79.10
2022-08-21T13:59:37.518Z,79.26
2022-08-21T14:02:22.432Z,80.01
2022-08-21T14:05:02.744Z,80.02
2022-08-21T14:07:42.077Z,80.54
2022-08-21T14:10:18.947Z,80.77
2022-08-21T14:13:06.772Z,80.62
2022-08-21T14:15:36.581Z,80.51
2022-08-21T14:18:18.344Z,79.62
2022-08-21T14:20:46.799Z,79.93
2022-08-21T14:23:26.605Z,79.82
2022-08-21T14:25:54.510Z,80.18
2022-08-21T14:28:31.037Z,80.05
2022-08-21T14:30:58.869Z,79.59
2022-08-21T14:33:34.584Z,80.61
2022-08-21T14:36:03.057Z,80.30
2022-08-21T14:38:30.526Z,79.80
2022-08-21T14:41:16.869Z,80.12
2022-08-21T14:43:46.597Z,79.87
2022-08-21T14:46:25.283Z,79.52
2022-08-21T14:48:52.883Z,79.66
2022-08-21T14:51:20.198Z,79.09
2022-08-21T14:53:48.547Z,78.97
2022-08-21T14:56:17.049Z,79.93
2022-08-21T14:58:49.649Z,79.84
2022-08-21T15:01:20.680Z,79.43
2022-08-21T15:03:49.554Z,78.78
2022-08-21T15:06:22.571Z,80.02
2022-08-21T15:08:49.963Z,79.30
2022-08-21T15:11:41.713Z,79.75
2022-08-21T15:14:19.608Z,79.20
2022-08-21T15:16:47.069Z,80.69
2022-08-21T15:19:14.478Z,80.41
2022-08-21T15:21:41.860Z,80.68
2022-08-21T15:24:09.257Z,80.36
2022-08-21T15:26:37.838Z,80.36
2022-08-21T15:29:08.351Z,80.16
2022-08-21T15:31:36.553Z,79.59
2022-08-21T15:34:04.436Z,80.84
2022-08-21T15:36:31.747Z,80.86
2022-08-21T15:38:58.980Z,80.70
2022-08-21T15:41:26.441Z,80.54
2022-08-21T15:43:54.947Z,80.91
2022-08-21T15:46:23.111Z,81.14
2022-08-21T15:48:50.400Z,81.75
2022-08-21T15:51:18.963Z,81.76
2022-08-21T15:53:47.565Z,81.23
2022-08-21T15:56:38.489Z,81.47
2022-08-21T15:59:10.627Z,81.50
2022-08-21T16:01:44.725Z,80.85
2022-08-21T16:04:22.573Z,81.21
2022-08-21T16:06:55.389Z,81.54
2022-08-21T16:09:24.953Z,81.44
2022-08-21T16:11:52.767Z,81.09
2022-08-21T16:14:20.169Z,81.36
2022-08-21T16:16:47.650Z,81.61
2022-08-21T16:19:15.682Z,81.75
2022-08-21T16:21:43.089Z,81.60
2022-08-21T16:24:10.405Z,82.25
2022-08-21T16:26:37.914Z,81.02
2022-08-21T16:29:07.381Z,82.10
2022-08-21T16:31:35.198Z,81.80
2022-08-21T16:34:03.413Z,82.95
2022-08-21T16:36:31.038Z,83.11
2022-08-21T16:39:05.521Z,83.07
2022-08-21T16:41:36.082Z,81.87
2022-08-21T16:44:05.134Z,81.81
2022-08-21T16:46:38.164Z,82.99
2022-08-21T16:49:05.559Z,82.80
2022-08-21T16:51:33.499Z,81.87
2022-08-21T16:54:01.512Z,82.85
2022-08-21T16:56:29.681Z,83.17
2022-08-21T16:58:58.903Z,82.41
2022-08-21T17:01:31.287Z,82.23
2022-08-21T17:03:58.746Z,81.79
2022-08-21T17:06:28.990Z,81.42
2022-08-21T17:08:57.226Z,82.34
2022-08-21T17:11:38.564Z,82.20
2022-08-21T17:14:18.112Z,82.18
2022-08-21T17:16:50.028Z,82.21
2022-08-21T17:19:18.858Z,81.91
2022-08-21T17:21:46.372Z,82.54
2022-08-21T17:24:15.735Z,82.77
2022-08-21T17:26:45.091Z,82.96
2022-08-21T17:29:16.096Z,82.60
2022-08-21T17:31:45.025Z,82.75
2022-08-21T17:34:14.832Z,81.76
2022-08-21T17:36:54.603Z,83.60
2022-08-21T17:39:22.453Z,83.25
2022-08-21T17:41:57.758Z,83.47
2022-08-21T17:44:25.978Z,83.44
2022-08-21T17:46:53.706Z,82.28
2022-08-21T17:49:21.140Z,82.57
2022-08-21T17:51:48.502Z,82.90
2022-08-21T17:54:15.767Z,82.09
2022-08-21T17:56:43.891Z,82.07
2022-08-21T17:59:12.120Z,82.73
2022-08-21T18:01:43.201Z,82.79
2022-08-21T18:04:12.107Z,82.64
2022-08-21T18:06:40.551Z,83.32
2022-08-21T18:09:08.837Z,83.18
2022-08-21T18:11:37.771Z,83.87
2022-08-21T18:14:07.787Z,83.61
2022-08-21T18:16:37.963Z,82.71
2022-08-21T18:19:10.503Z,82.79
2022-08-21T18:21:38.617Z,82.11
2022-08-21T18:24:06.242Z,81.94
2022-08-21T18:26:38.258Z,82.76
2022-08-21T18:29:10.520Z,82.67
2022-08-21T18:31:40.429Z,82.52
2022-08-21T18:34:23.958Z,82.15
2022-08-21T18:36:53.162Z,82.24
2022-08-21T18:39:38.047Z,81.06
2022-08-21T18:42:12.208Z,82.27
2022-08-21T18:44:40.676Z,82.38
2022-08-21T18:47:16.261Z,80.78
2022-08-21T18:49:43.775Z,81.62
2022-08-21T18:52:16.123Z,81.53
2022-08-21T18:54:49.830Z,81.32
2022-08-21T18:57:39.995Z,81.46
2022-08-21T19:03:01.087Z,81.45
2022-08-21T19:05:29.319Z,80.87
2022-08-21T19:11:03.152Z,81.25
2022-08-21T19:13:33.433Z,80.68
2022-08-21T19:16:04.085Z,81.10
2022-08-21T19:18:38.022Z,80.98
2022-08-21T19:21:07.597Z,81.51
2022-08-21T19:23:35.556Z,81.15
2022-08-21T19:26:06.443Z,81.85
2022-08-21T19:28:44.761Z,80.92
2022-08-21T19:37:36.970Z,81.61
2022-08-21T19:40:08.252Z,82.00
2022-08-21T19:42:36.745Z,81.84
2022-08-21T19:45:06.581Z,82.00
2022-08-21T19:47:33.840Z,81.68
2022-08-21T19:50:17.453Z,81.01
2022-08-21T19:52:52.984Z,81.67
2022-08-21T19:55:23.344Z,81.83
2022-08-21T19:57:50.810Z,81.68
2022-08-21T20:00:18.202Z,82.04
2022-08-21T20:05:39.558Z,81.33
2022-08-21T20:08:11.789Z,81.04
2022-08-21T20:13:36.117Z,81.49
2022-08-21T20:16:08.480Z,81.35
2022-08-21T20:18:38.459Z,81.55
2022-08-21T20:21:13.276Z,81.16
2022-08-21T20:23:48.820Z,81.49
2022-08-21T20:26:17.632Z,81.23
2022-08-21T20:28:46.280Z,79.79
2022-08-21T20:31:19.624Z,81.23
2022-08-21T20:33:49.646Z,80.86
2022-08-21T20:36:18.197Z,80.76
2022-08-21T20:38:48.208Z,81.76
2022-08-21T20:41:17.911Z,81.50
2022-08-21T20:43:50.710Z,80.87
2022-08-21T20:46:23.958Z,81.06
2022-08-21T20:48:52.226Z,80.94
2022-08-21T20:51:33.359Z,80.81
2022-08-21T20:54:34.505Z,80.70
2022-08-21T20:57:22.787Z,80.54
2022-08-21T21:00:01.797Z,80.15
2022-08-21T21:03:00.324Z,81.06
2022-08-21T21:05:44.420Z,81.07
2022-08-21T21:08:39.441Z,80.93
2022-08-21T21:11:20.155Z,80.87
2022-08-21T21:14:04.891Z,81.13
2022-08-21T21:16:50.738Z,80.61
2022-08-21T21:19:36.932Z,80.79
2022-08-21T21:22:25.827Z,80.47
2022-08-21T21:25:15.387Z,79.35
2022-08-21T21:27:55.805Z,78.97
2022-08-21T21:30:38.102Z,79.39
2022-08-21T21:33:05.457Z,79.61
2022-08-21T21:36:00.209Z,79.20
2022-08-21T21:38:52.936Z,79.80
2022-08-21T21:41:25.961Z,78.92
2022-08-21T21:44:08.042Z,79.44
2022-08-21T21:47:03.018Z,80.42
2022-08-21T21:50:19.074Z,80.16
2022-08-21T21:53:17.047Z,80.91
2022-08-21T21:56:29.095Z,80.67
2022-08-21T21:59:08.288Z,81.23
2022-08-21T22:01:39.765Z,81.38
2022-08-21T22:04:46.892Z,81.08
2022-08-21T22:07:43.996Z,81.15
2022-08-21T22:10:30.579Z,80.96
2022-08-21T22:13:26.896Z,81.11
2022-08-21T22:15:55.666Z,81.46
2022-08-21T22:18:45.206Z,81.60
2022-08-21T22:21:25.210Z,81.33
2022-08-21T22:24:00.801Z,81.39
2022-08-21T22:26:44.190Z,81.38
2022-08-21T22:29:18.939Z,82.61
2022-08-21T22:32:04.935Z,82.15
2022-08-21T22:34:32.782Z,82.63
2022-08-21T22:37:10.135Z,82.46
2022-08-21T22:39:46.106Z,82.03
2022-08-21T22:42:27.508Z,82.81
2022-08-21T22:45:01.961Z,82.36
2022-08-21T22:47:43.073Z,81.97
2022-08-21T22:50:26.290Z,82.75
2022-08-21T22:53:08.229Z,82.91
2022-08-21T22:55:46.030Z,82.88
2022-08-21T22:58:43.931Z,82.76
2022-08-21T23:01:33.488Z,82.71
2022-08-21T23:04:18.564Z,82.94
2022-08-21T23:06:58.249Z,83.18
2022-08-21T23:09:32.117Z,82.81
2022-08-21T23:18:17.573Z,83.10
2022-08-21T23:27:44.376Z,83.77
2022-08-21T23:30:19.063Z,83.22
2022-08-21T23:33:21.634Z,83.50
2022-08-21T23:36:32.423Z,84.21
2022-08-21T23:39:25.378Z,83.73
2022-08-21T23:42:07.791Z,83.54
2022-08-21T23:45:14.058Z,83.96
2022-08-21T23:48:09.887Z,83.54
2022-08-21T23:50:51.890Z,83.93
